sensor_id;sensor_type;location;lat;lon;timestamp;pressure;altitude;pressure_sealevel;temperature;humidity
49979;BME280;35869;50.990;6.962;2023-03-01T00:02:05;102674.41;;;0.30;77.46
49979;BME280;35869;50.990;6.962;2023-03-01T00:07:06;102686.63;;;0.12;75.54
49979;BME280;35869;50.990;6.962;2023-03-01T00:12:06;102688.41;;;0.14;76.49
49979;BME280;35869;50.990;6.962;2023-03-01T00:17:06;102689.94;;;0.08;77.75
49979;BME280;35869;50.990;6.962;2023-03-01T00:22:06;102684.72;;;0.05;76.28
49979;BME280;35869;50.990;6.962;2023-03-01T00:27:07;102681.50;;;0.12;76.43
49979;BME280;35869;50.990;6.962;2023-03-01T00:32:07;102678.66;;;0.01;75.67
49979;BME280;35869;50.990;6.962;2023-03-01T00:37:07;102681.13;;;-0.01;75.57
49979;BME280;35869;50.990;6.962;2023-03-01T00:42:07;102677.59;;;-0.06;75.19
49979;BME280;35869;50.990;6.962;2023-03-01T00:47:08;102675.75;;;-0.10;75.98
49979;BME280;35869;50.990;6.962;2023-03-01T00:52:08;102675.56;;;-0.16;75.82
49979;BME280;35869;50.990;6.962;2023-03-01T00:57:08;102664.22;;;-0.24;74.74
49979;BME280;35869;50.990;6.962;2023-03-01T01:02:09;102664.22;;;-0.24;74.35
49979;BME280;35869;50.990;6.962;2023-03-01T01:07:09;102670.13;;;-0.27;75.11
49979;BME280;35869;50.990;6.962;2023-03-01T01:12:09;102652.34;;;-0.23;75.39
49979;BME280;35869;50.990;6.962;2023-03-01T01:17:09;102643.56;;;-0.32;74.12
49979;BME280;35869;50.990;6.962;2023-03-01T01:22:09;102642.38;;;-0.41;73.84
49979;BME280;35869;50.990;6.962;2023-03-01T01:27:10;102635.66;;;-0.39;74.38
49979;BME280;35869;50.990;6.962;2023-03-01T01:32:10;102630.31;;;-0.47;73.46
49979;BME280;35869;50.990;6.962;2023-03-01T01:37:10;102628.63;;;-0.46;72.76
49979;BME280;35869;50.990;6.962;2023-03-01T01:42:18;102617.47;;;-0.48;72.64
49979;BME280;35869;50.990;6.962;2023-03-01T01:47:20;102609.00;;;-0.47;72.20
49979;BME280;35869;50.990;6.962;2023-03-01T01:52:26;102606.44;;;-0.47;72.17
49979;BME280;35869;50.990;6.962;2023-03-01T01:57:40;102603.09;;;-0.46;73.86
49979;BME280;35869;50.990;6.962;2023-03-01T02:02:42;102591.22;;;-0.44;74.26
49979;BME280;35869;50.990;6.962;2023-03-01T02:07:45;102585.94;;;-0.50;73.40
49979;BME280;35869;50.990;6.962;2023-03-01T02:12:46;102586.56;;;-0.58;72.97
49979;BME280;35869;50.990;6.962;2023-03-01T02:17:46;102583.75;;;-0.65;72.66
49979;BME280;35869;50.990;6.962;2023-03-01T02:22:47;102582.16;;;-0.62;73.73
49979;BME280;35869;50.990;6.962;2023-03-01T02:33:15;102594.94;;;-0.62;75.03
49979;BME280;35869;50.990;6.962;2023-03-01T02:38:15;102594.09;;;-0.61;75.69
49979;BME280;35869;50.990;6.962;2023-03-01T02:43:16;102595.59;;;-0.67;76.39
49979;BME280;35869;50.990;6.962;2023-03-01T02:48:18;102584.38;;;-0.72;75.95
49979;BME280;35869;50.990;6.962;2023-03-01T02:53:29;102587.31;;;-0.87;74.13
49979;BME280;35869;50.990;6.962;2023-03-01T02:58:32;102579.66;;;-0.87;74.33
49979;BME280;35869;50.990;6.962;2023-03-01T03:03:32;102570.66;;;-0.76;75.40
49979;BME280;35869;50.990;6.962;2023-03-01T03:08:32;102570.47;;;-0.82;76.05
49979;BME280;35869;50.990;6.962;2023-03-01T03:13:32;102560.38;;;-0.77;76.75
49979;BME280;35869;50.990;6.962;2023-03-01T03:18:33;102559.25;;;-0.87;77.33
49979;BME280;35869;50.990;6.962;2023-03-01T03:23:33;102553.06;;;-0.94;76.51
49979;BME280;35869;50.990;6.962;2023-03-01T03:28:34;102547.91;;;-0.95;77.17
49979;BME280;35869;50.990;6.962;2023-03-01T03:33:35;102547.84;;;-0.97;78.50
49979;BME280;35869;50.990;6.962;2023-03-01T03:38:35;102551.91;;;-1.03;78.04
49979;BME280;35869;50.990;6.962;2023-03-01T03:43:37;102558.84;;;-0.99;77.49
49979;BME280;35869;50.990;6.962;2023-03-01T03:48:40;102555.28;;;-1.04;77.98
49979;BME280;35869;50.990;6.962;2023-03-01T03:53:41;102546.88;;;-1.00;78.06
49979;BME280;35869;50.990;6.962;2023-03-01T03:58:41;102540.81;;;-1.04;78.76
49979;BME280;35869;50.990;6.962;2023-03-01T04:03:42;102541.66;;;-1.05;79.37
49979;BME280;35869;50.990;6.962;2023-03-01T04:08:42;102527.13;;;-1.06;79.35
49979;BME280;35869;50.990;6.962;2023-03-01T04:13:42;102527.91;;;-1.09;79.51
49979;BME280;35869;50.990;6.962;2023-03-01T04:18:43;102531.38;;;-1.07;78.92
49979;BME280;35869;50.990;6.962;2023-03-01T04:23:43;102524.25;;;-1.17;79.82
49979;BME280;35869;50.990;6.962;2023-03-01T04:28:44;102524.25;;;-1.17;79.85
49979;BME280;35869;50.990;6.962;2023-03-01T04:33:49;102519.22;;;-1.14;78.89
49979;BME280;35869;50.990;6.962;2023-03-01T04:38:49;102518.13;;;-1.22;79.63
49979;BME280;35869;50.990;6.962;2023-03-01T04:43:50;102521.97;;;-1.35;80.33
49979;BME280;35869;50.990;6.962;2023-03-01T04:48:50;102513.22;;;-1.41;80.74
49979;BME280;35869;50.990;6.962;2023-03-01T04:53:51;102515.72;;;-1.43;80.65
49979;BME280;35869;50.990;6.962;2023-03-01T04:58:53;102508.22;;;-1.38;80.03
49979;BME280;35869;50.990;6.962;2023-03-01T05:03:53;102505.31;;;-1.49;80.20
49979;BME280;35869;50.990;6.962;2023-03-01T05:08:54;102505.06;;;-1.56;80.44
49979;BME280;35869;50.990;6.962;2023-03-01T05:13:54;102508.59;;;-1.77;80.97
49979;BME280;35869;50.990;6.962;2023-03-01T05:18:54;102508.38;;;-1.83;80.03
49979;BME280;35869;50.990;6.962;2023-03-01T05:23:54;102513.81;;;-1.74;80.22
49979;BME280;35869;50.990;6.962;2023-03-01T05:28:55;102513.69;;;-1.77;81.37
49979;BME280;35869;50.990;6.962;2023-03-01T05:33:55;102516.41;;;-1.72;80.83
49979;BME280;35869;50.990;6.962;2023-03-01T05:38:56;102518.78;;;-1.77;81.43
49979;BME280;35869;50.990;6.962;2023-03-01T05:43:56;102513.47;;;-1.83;81.68
49979;BME280;35869;50.990;6.962;2023-03-01T05:48:56;102511.75;;;-1.84;81.52
49979;BME280;35869;50.990;6.962;2023-03-01T05:53:56;102511.66;;;-1.87;82.32
49979;BME280;35869;50.990;6.962;2023-03-01T05:58:56;102513.38;;;-1.86;82.29
49979;BME280;35869;50.990;6.962;2023-03-01T06:03:57;102505.63;;;-1.89;82.21
49979;BME280;35869;50.990;6.962;2023-03-01T06:08:57;102507.34;;;-1.88;81.97
49979;BME280;35869;50.990;6.962;2023-03-01T06:13:57;102506.03;;;-2.01;82.84
49979;BME280;35869;50.990;6.962;2023-03-01T06:18:57;102496.78;;;-1.99;83.02
49979;BME280;35869;50.990;6.962;2023-03-01T06:23:57;102503.56;;;-1.99;82.88
49979;BME280;35869;50.990;6.962;2023-03-01T06:28:57;102500.56;;;-2.11;82.67
49979;BME280;35869;50.990;6.962;2023-03-01T06:33:58;102502.84;;;-2.19;82.54
49979;BME280;35869;50.990;6.962;2023-03-01T06:38:58;102508.91;;;-2.16;82.88
49979;BME280;35869;50.990;6.962;2023-03-01T06:43:58;102501.75;;;-2.26;82.64
49979;BME280;35869;50.990;6.962;2023-03-01T06:48:59;102504.41;;;-2.23;81.43
49979;BME280;35869;50.990;6.962;2023-03-01T06:53:59;102500.59;;;-2.34;79.79
49979;BME280;35869;50.990;6.962;2023-03-01T06:58:59;102499.56;;;-2.39;79.81
49979;BME280;35869;50.990;6.962;2023-03-01T07:03:59;102503.72;;;-2.41;78.98
49979;BME280;35869;50.990;6.962;2023-03-01T07:09:00;102501.47;;;-2.33;79.28
49979;BME280;35869;50.990;6.962;2023-03-01T07:14:00;102494.47;;;-2.39;78.57
49979;BME280;35869;50.990;6.962;2023-03-01T07:19:00;102500.44;;;-2.38;78.58
49979;BME280;35869;50.990;6.962;2023-03-01T07:24:00;102496.31;;;-2.35;78.12
49979;BME280;35869;50.990;6.962;2023-03-01T07:29:02;102483.66;;;-2.33;78.07
49979;BME280;35869;50.990;6.962;2023-03-01T07:34:03;102480.47;;;-2.28;77.54
49979;BME280;35869;50.990;6.962;2023-03-01T07:39:03;102481.59;;;-2.20;78.34
49979;BME280;35869;50.990;6.962;2023-03-01T07:44:03;102485.19;;;-2.15;77.94
49979;BME280;35869;50.990;6.962;2023-03-01T07:49:04;102493.00;;;-2.10;77.89
49979;BME280;35869;50.990;6.962;2023-03-01T07:54:04;102494.25;;;-1.99;77.77
49979;BME280;35869;50.990;6.962;2023-03-01T07:59:04;102479.09;;;-1.94;77.60
49979;BME280;35869;50.990;6.962;2023-03-01T08:04:12;102477.59;;;-1.89;77.69
49979;BME280;35869;50.990;6.962;2023-03-01T08:09:13;102477.31;;;-1.73;77.46
49979;BME280;35869;50.990;6.962;2023-03-01T08:14:13;102469.03;;;-1.66;77.51
49979;BME280;35869;50.990;6.962;2023-03-01T08:19:13;102467.84;;;-1.51;77.49
49979;BME280;35869;50.990;6.962;2023-03-01T08:24:13;102470.00;;;-1.37;76.87
49979;BME280;35869;50.990;6.962;2023-03-01T08:29:13;102466.28;;;-1.21;78.03
49979;BME280;35869;50.990;6.962;2023-03-01T08:34:16;102473.31;;;-1.14;77.03
49979;BME280;35869;50.990;6.962;2023-03-01T08:39:18;102476.34;;;-0.98;77.79
49979;BME280;35869;50.990;6.962;2023-03-01T08:44:18;102466.59;;;-0.83;77.29
49979;BME280;35869;50.990;6.962;2023-03-01T08:49:19;102467.38;;;-0.59;76.95
49979;BME280;35869;50.990;6.962;2023-03-01T08:54:21;102461.78;;;-0.45;77.01
49979;BME280;35869;50.990;6.962;2023-03-01T08:59:21;102465.00;;;-0.22;75.59
49979;BME280;35869;50.990;6.962;2023-03-01T09:04:22;102460.44;;;-0.01;73.95
49979;BME280;35869;50.990;6.962;2023-03-01T09:09:22;102461.75;;;0.15;73.49
49979;BME280;35869;50.990;6.962;2023-03-01T09:14:22;102449.56;;;0.38;71.79
49979;BME280;35869;50.990;6.962;2023-03-01T09:19:22;102455.00;;;0.51;72.39
49979;BME280;35869;50.990;6.962;2023-03-01T09:24:24;102441.63;;;0.62;71.64
49979;BME280;35869;50.990;6.962;2023-03-01T09:29:25;102442.06;;;0.80;70.75
49979;BME280;35869;50.990;6.962;2023-03-01T09:34:25;102437.31;;;0.97;70.85
49979;BME280;35869;50.990;6.962;2023-03-01T09:39:25;102426.38;;;1.04;71.22
49979;BME280;35869;50.990;6.962;2023-03-01T09:44:54;102418.13;;;1.17;70.98
49979;BME280;35869;50.990;6.962;2023-03-01T09:50:13;102426.88;;;1.25;71.31
49979;BME280;35869;50.990;6.962;2023-03-01T09:55:17;102414.34;;;1.41;70.37
49979;BME280;35869;50.990;6.962;2023-03-01T10:00:36;102404.44;;;1.56;69.32
49979;BME280;35869;50.990;6.962;2023-03-01T10:05:56;102406.63;;;1.81;67.91
49979;BME280;35869;50.990;6.962;2023-03-01T10:10:58;102417.19;;;1.97;66.84
49979;BME280;35869;50.990;6.962;2023-03-01T10:16:09;102407.78;;;1.97;65.14
49979;BME280;35869;50.990;6.962;2023-03-01T10:21:15;102398.00;;;2.25;65.98
49979;BME280;35869;50.990;6.962;2023-03-01T10:26:33;102391.47;;;2.42;64.71
49979;BME280;35869;50.990;6.962;2023-03-01T10:31:49;102385.59;;;2.49;66.89
49979;BME280;35869;50.990;6.962;2023-03-01T10:36:53;102371.25;;;2.63;63.83
49979;BME280;35869;50.990;6.962;2023-03-01T10:42:05;102363.88;;;2.85;62.80
49979;BME280;35869;50.990;6.962;2023-03-01T10:47:13;102357.94;;;2.90;66.15
49979;BME280;35869;50.990;6.962;2023-03-01T10:52:22;102358.34;;;3.19;64.55
49979;BME280;35869;50.990;6.962;2023-03-01T10:57:38;102352.53;;;3.36;61.69
49979;BME280;35869;50.990;6.962;2023-03-01T11:02:39;102342.47;;;3.56;61.36
49979;BME280;35869;50.990;6.962;2023-03-01T11:07:58;102333.16;;;3.65;62.03
49979;BME280;35869;50.990;6.962;2023-03-01T11:13:18;102316.09;;;3.73;62.33
49979;BME280;35869;50.990;6.962;2023-03-01T11:18:21;102309.38;;;3.88;63.03
49979;BME280;35869;50.990;6.962;2023-03-01T11:23:22;102305.31;;;4.19;59.25
49979;BME280;35869;50.990;6.962;2023-03-01T11:28:24;102288.97;;;4.12;59.57
49979;BME280;35869;50.990;6.962;2023-03-01T11:33:42;102288.28;;;4.36;60.82
49979;BME280;35869;50.990;6.962;2023-03-01T11:38:43;102278.00;;;4.36;62.87
49979;BME280;35869;50.990;6.962;2023-03-01T11:43:59;102273.88;;;4.64;59.47
49979;BME280;35869;50.990;6.962;2023-03-01T11:54:45;102261.94;;;4.81;59.41
49979;BME280;35869;50.990;6.962;2023-03-01T12:05:56;102250.78;;;4.92;62.70
49979;BME280;35869;50.990;6.962;2023-03-01T12:21:39;102223.47;;;5.58;59.63
49979;BME280;35869;50.990;6.962;2023-03-01T12:26:45;102217.44;;;5.97;57.10
49979;BME280;35869;50.990;6.962;2023-03-01T12:53:36;102169.97;;;6.49;58.27
49979;BME280;35869;50.990;6.962;2023-03-01T13:14:44;102143.78;;;7.11;54.84
49979;BME280;35869;50.990;6.962;2023-03-01T13:19:56;102133.38;;;7.19;53.09
49979;BME280;35869;50.990;6.962;2023-03-01T13:25:18;102122.16;;;7.20;52.60
49979;BME280;35869;50.990;6.962;2023-03-01T13:35:42;102125.47;;;7.40;52.14
49979;BME280;35869;50.990;6.962;2023-03-01T13:40:57;102118.66;;;7.29;51.50
49979;BME280;35869;50.990;6.962;2023-03-01T13:45:59;102117.59;;;7.53;52.30
49979;BME280;35869;50.990;6.962;2023-03-01T13:51:10;102106.28;;;7.63;51.70
49979;BME280;35869;50.990;6.962;2023-03-01T13:56:15;102104.63;;;7.56;50.16
49979;BME280;35869;50.990;6.962;2023-03-01T14:01:29;102091.56;;;7.66;50.66
49979;BME280;35869;50.990;6.962;2023-03-01T14:06:31;102090.72;;;7.66;49.46
49979;BME280;35869;50.990;6.962;2023-03-01T14:22:22;102080.19;;;7.83;52.32
49979;BME280;35869;50.990;6.962;2023-03-01T14:27:26;102077.56;;;7.87;51.57
49979;BME280;35869;50.990;6.962;2023-03-01T14:32:29;102066.41;;;7.79;51.28
49979;BME280;35869;50.990;6.962;2023-03-01T14:37:32;102054.34;;;7.78;51.38
49979;BME280;35869;50.990;6.962;2023-03-01T14:42:35;102047.44;;;7.80;52.21
49979;BME280;35869;50.990;6.962;2023-03-01T14:47:36;102039.81;;;7.69;51.64
49979;BME280;35869;50.990;6.962;2023-03-01T14:52:39;102040.78;;;7.59;52.08
49979;BME280;35869;50.990;6.962;2023-03-01T14:57:47;102041.28;;;7.90;53.47
49979;BME280;35869;50.990;6.962;2023-03-01T15:02:50;102033.78;;;7.66;52.29
49979;BME280;35869;50.990;6.962;2023-03-01T15:07:51;102035.88;;;7.30;52.38
49979;BME280;35869;50.990;6.962;2023-03-01T15:12:52;102028.91;;;7.38;52.69
49979;BME280;35869;50.990;6.962;2023-03-01T15:17:54;102033.31;;;7.29;52.53
49979;BME280;35869;50.990;6.962;2023-03-01T15:22:56;102017.88;;;7.22;52.62
49979;BME280;35869;50.990;6.962;2023-03-01T15:27:57;102018.72;;;7.23;52.40
49979;BME280;35869;50.990;6.962;2023-03-01T15:33:17;102019.53;;;7.27;52.12
49979;BME280;35869;50.990;6.962;2023-03-01T15:43:41;102016.22;;;7.15;52.35
49979;BME280;35869;50.990;6.962;2023-03-01T15:48:45;102008.28;;;7.32;51.86
49979;BME280;35869;50.990;6.962;2023-03-01T15:53:50;101994.69;;;7.12;51.30
49979;BME280;35869;50.990;6.962;2023-03-01T15:58:50;101999.81;;;7.18;52.59
49979;BME280;35869;50.990;6.962;2023-03-01T16:03:51;101993.78;;;7.17;51.64
49979;BME280;35869;50.990;6.962;2023-03-01T16:08:51;101992.81;;;7.28;52.44
49979;BME280;35869;50.990;6.962;2023-03-01T16:13:51;101994.88;;;6.93;52.87
49979;BME280;35869;50.990;6.962;2023-03-01T16:18:51;101982.72;;;7.05;52.76
49979;BME280;35869;50.990;6.962;2023-03-01T16:23:52;101981.09;;;6.91;53.19
49979;BME280;35869;50.990;6.962;2023-03-01T16:28:55;101983.03;;;6.66;52.65
49979;BME280;35869;50.990;6.962;2023-03-01T16:33:57;101992.44;;;6.74;53.24
49979;BME280;35869;50.990;6.962;2023-03-01T16:38:59;102004.75;;;6.39;52.41
49979;BME280;35869;50.990;6.962;2023-03-01T16:43:59;102012.44;;;6.52;52.41
49979;BME280;35869;50.990;6.962;2023-03-01T16:48:59;102003.06;;;6.34;52.93
49979;BME280;35869;50.990;6.962;2023-03-01T16:54:00;102007.41;;;6.24;52.62
49979;BME280;35869;50.990;6.962;2023-03-01T16:59:00;102016.00;;;6.29;54.33
49979;BME280;35869;50.990;6.962;2023-03-01T17:04:00;102014.38;;;6.16;53.18
49979;BME280;35869;50.990;6.962;2023-03-01T17:09:00;102012.66;;;6.09;54.08
49979;BME280;35869;50.990;6.962;2023-03-01T17:14:00;102008.38;;;6.03;54.37
49979;BME280;35869;50.990;6.962;2023-03-01T17:19:01;102017.03;;;5.95;53.99
49979;BME280;35869;50.990;6.962;2023-03-01T17:24:01;102011.91;;;5.76;54.48
49979;BME280;35869;50.990;6.962;2023-03-01T17:29:02;102019.69;;;5.64;54.73
49979;BME280;35869;50.990;6.962;2023-03-01T17:34:02;102024.91;;;5.33;54.83
49979;BME280;35869;50.990;6.962;2023-03-01T17:39:02;102038.69;;;5.35;54.49
49979;BME280;35869;50.990;6.962;2023-03-01T17:44:02;102042.13;;;5.19;54.02
49979;BME280;35869;50.990;6.962;2023-03-01T17:49:03;102049.88;;;5.07;54.69
49979;BME280;35869;50.990;6.962;2023-03-01T17:54:03;102055.00;;;5.04;55.18
49979;BME280;35869;50.990;6.962;2023-03-01T17:59:04;102044.72;;;4.95;55.51
49979;BME280;35869;50.990;6.962;2023-03-01T18:04:04;102043.84;;;4.90;54.69
49979;BME280;35869;50.990;6.962;2023-03-01T18:09:06;102039.56;;;4.93;55.43
49979;BME280;35869;50.990;6.962;2023-03-01T18:14:06;102052.44;;;4.75;54.94
49979;BME280;35869;50.990;6.962;2023-03-01T18:19:07;102048.97;;;4.65;55.17
49979;BME280;35869;50.990;6.962;2023-03-01T18:24:07;102041.22;;;4.56;55.39
49979;BME280;35869;50.990;6.962;2023-03-01T18:29:07;102044.69;;;4.70;55.79
49979;BME280;35869;50.990;6.962;2023-03-01T18:34:08;102048.97;;;4.62;55.76
49979;BME280;35869;50.990;6.962;2023-03-01T18:39:10;102040.38;;;4.60;57.29
49979;BME280;35869;50.990;6.962;2023-03-01T18:44:10;102038.69;;;4.58;56.98
49979;BME280;35869;50.990;6.962;2023-03-01T18:49:12;102036.91;;;4.37;59.07
49979;BME280;35869;50.990;6.962;2023-03-01T18:54:12;102038.66;;;4.41;58.26
49979;BME280;35869;50.990;6.962;2023-03-01T18:59:13;102027.47;;;4.36;60.90
49979;BME280;35869;50.990;6.962;2023-03-01T19:04:13;102036.84;;;4.18;59.69
49979;BME280;35869;50.990;6.962;2023-03-01T19:09:13;102047.13;;;4.12;60.07
49979;BME280;35869;50.990;6.962;2023-03-01T19:14:14;102046.25;;;4.06;60.43
49979;BME280;35869;50.990;6.962;2023-03-01T19:19:14;102042.81;;;4.05;64.55
49979;BME280;35869;50.990;6.962;2023-03-01T19:24:14;102041.06;;;4.04;65.49
49979;BME280;35869;50.990;6.962;2023-03-01T19:29:14;102032.47;;;3.97;62.99
49979;BME280;35869;50.990;6.962;2023-03-01T19:34:14;102033.31;;;3.87;66.17
49979;BME280;35869;50.990;6.962;2023-03-01T19:39:15;102022.13;;;3.78;67.79
49979;BME280;35869;50.990;6.962;2023-03-01T19:44:15;102035.81;;;3.72;67.50
49979;BME280;35869;50.990;6.962;2023-03-01T19:49:15;102028.06;;;3.67;67.53
49979;BME280;35869;50.990;6.962;2023-03-01T19:54:15;102023.72;;;3.57;68.42
49979;BME280;35869;50.990;6.962;2023-03-01T19:59:17;102024.53;;;3.50;68.08
49979;BME280;35869;50.990;6.962;2023-03-01T20:04:17;102031.38;;;3.46;68.70
49979;BME280;35869;50.990;6.962;2023-03-01T20:09:17;102022.72;;;3.34;69.79
49979;BME280;35869;50.990;6.962;2023-03-01T20:14:18;102024.41;;;3.29;69.74
49979;BME280;35869;50.990;6.962;2023-03-01T20:19:18;102014.84;;;3.09;70.76
49979;BME280;35869;50.990;6.962;2023-03-01T20:24:18;102016.56;;;3.07;70.07
49979;BME280;35869;50.990;6.962;2023-03-01T20:29:18;102023.34;;;2.99;70.54
49979;BME280;35869;50.990;6.962;2023-03-01T20:34:19;102027.53;;;2.91;69.94
49979;BME280;35869;50.990;6.962;2023-03-01T20:39:19;102020.69;;;2.90;70.59
49979;BME280;35869;50.990;6.962;2023-03-01T20:44:19;102016.34;;;2.81;70.76
49979;BME280;35869;50.990;6.962;2023-03-01T20:49:19;102006.00;;;2.71;70.58
49979;BME280;35869;50.990;6.962;2023-03-01T20:54:19;102011.91;;;2.63;71.04
49979;BME280;35869;50.990;6.962;2023-03-01T20:59:20;102025.56;;;2.59;71.04
49979;BME280;35869;50.990;6.962;2023-03-01T21:04:20;102028.94;;;2.55;71.66
49979;BME280;35869;50.990;6.962;2023-03-01T21:09:20;102028.03;;;2.47;71.13
49979;BME280;35869;50.990;6.962;2023-03-01T21:14:20;102028.81;;;2.45;71.56
49979;BME280;35869;50.990;6.962;2023-03-01T21:19:20;102039.88;;;2.36;72.41
49979;BME280;35869;50.990;6.962;2023-03-01T21:24:21;102035.53;;;2.30;71.31
49979;BME280;35869;50.990;6.962;2023-03-01T21:29:21;102035.53;;;2.30;69.52
49979;BME280;35869;50.990;6.962;2023-03-01T21:34:21;102033.84;;;2.34;69.26
49979;BME280;35869;50.990;6.962;2023-03-01T21:39:21;102035.47;;;2.26;71.58
49979;BME280;35869;50.990;6.962;2023-03-01T21:44:23;102031.13;;;2.19;71.32
49979;BME280;35869;50.990;6.962;2023-03-01T21:49:24;102033.56;;;2.06;72.20
49979;BME280;35869;50.990;6.962;2023-03-01T21:54:24;102034.34;;;2.02;72.48
49979;BME280;35869;50.990;6.962;2023-03-01T21:59:25;102036.84;;;1.96;73.65
49979;BME280;35869;50.990;6.962;2023-03-01T22:04:25;102040.19;;;1.89;73.94
49979;BME280;35869;50.990;6.962;2023-03-01T22:09:25;102028.16;;;1.85;74.06
49979;BME280;35869;50.990;6.962;2023-03-01T22:14:25;102029.00;;;1.82;74.15
49979;BME280;35869;50.990;6.962;2023-03-01T22:19:26;102026.38;;;1.78;73.82
49979;BME280;35869;50.990;6.962;2023-03-01T22:24:26;102014.31;;;1.72;73.88
49979;BME280;35869;50.990;6.962;2023-03-01T22:29:28;102015.19;;;1.73;71.72
49979;BME280;35869;50.990;6.962;2023-03-01T22:34:28;102010.84;;;1.66;71.62
49979;BME280;35869;50.990;6.962;2023-03-01T22:39:28;102016.81;;;1.66;71.07
49979;BME280;35869;50.990;6.962;2023-03-01T22:44:28;102021.03;;;1.63;70.43
49979;BME280;35869;50.990;6.962;2023-03-01T22:49:29;102021.94;;;1.66;68.60
49979;BME280;35869;50.990;6.962;2023-03-01T22:54:29;102016.81;;;1.66;69.75
49979;BME280;35869;50.990;6.962;2023-03-01T22:59:29;102003.22;;;1.70;69.59
49979;BME280;35869;50.990;6.962;2023-03-01T23:04:29;102005.56;;;1.56;70.64
49979;BME280;35869;50.990;6.962;2023-03-01T23:09:32;102010.69;;;1.56;71.31
49979;BME280;35869;50.990;6.962;2023-03-01T23:14:33;102007.22;;;1.51;71.75
49979;BME280;35869;50.990;6.962;2023-03-01T23:19:33;102014.03;;;1.49;71.47
49979;BME280;35869;50.990;6.962;2023-03-01T23:24:33;102012.22;;;1.42;71.75
49979;BME280;35869;50.990;6.962;2023-03-01T23:29:33;102014.59;;;1.30;70.08
49979;BME280;35869;50.990;6.962;2023-03-01T23:34:34;102015.47;;;1.32;69.09
49979;BME280;35869;50.990;6.962;2023-03-01T23:39:34;102011.22;;;1.34;68.54
49979;BME280;35869;50.990;6.962;2023-03-01T23:44:34;102010.28;;;1.26;68.42
49979;BME280;35869;50.990;6.962;2023-03-01T23:49:37;102012.91;;;1.30;68.68
49979;BME280;35869;50.990;6.962;2023-03-01T23:54:37;102012.84;;;1.27;68.39
49979;BME280;35869;50.990;6.962;2023-03-01T23:59:37;102017.94;;;1.24;68.60
